sensor_id;sensor_type;location;lat;lon;timestamp;P1;durP1;ratioP1;P2;durP2;ratioP2
33814;SDS011;20121;51.910;8.406;2023-05-02T00:01:55;2.80;;;2.10;;
33814;SDS011;20121;51.910;8.406;2023-05-02T00:04:21;2.93;;;2.63;;
33814;SDS011;20121;51.910;8.406;2023-05-02T00:06:47;3.67;;;3.07;;
33814;SDS011;20121;51.910;8.406;2023-05-02T00:09:12;3.23;;;2.83;;
33814;SDS011;20121;51.910;8.406;2023-05-02T00:11:39;3.65;;;2.35;;
33814;SDS011;20121;51.910;8.406;2023-05-02T00:14:05;5.03;;;3.40;;
33814;SDS011;20121;51.910;8.406;2023-05-02T00:16:30;2.77;;;2.57;;
33814;SDS011;20121;51.910;8.406;2023-05-02T00:18:56;3.33;;;2.87;;
33814;SDS011;20121;51.910;8.406;2023-05-02T00:21:21;4.00;;;2.70;;
33814;SDS011;20121;51.910;8.406;2023-05-02T00:23:47;3.50;;;2.80;;
33814;SDS011;20121;51.910;8.406;2023-05-02T00:26:14;4.63;;;3.47;;
33814;SDS011;20121;51.910;8.406;2023-05-02T00:28:40;4.93;;;3.60;;
33814;SDS011;20121;51.910;8.406;2023-05-02T00:31:05;2.63;;;2.40;;
33814;SDS011;20121;51.910;8.406;2023-05-02T00:33:31;2.90;;;2.70;;
33814;SDS011;20121;51.910;8.406;2023-05-02T00:35:57;4.27;;;3.60;;
33814;SDS011;20121;51.910;8.406;2023-05-02T00:38:22;5.90;;;3.67;;
33814;SDS011;20121;51.910;8.406;2023-05-02T00:40:48;6.63;;;4.13;;
33814;SDS011;20121;51.910;8.406;2023-05-02T00:43:18;4.60;;;3.67;;
33814;SDS011;20121;51.910;8.406;2023-05-02T00:45:44;4.47;;;4.07;;
33814;SDS011;20121;51.910;8.406;2023-05-02T00:48:10;3.97;;;2.80;;
33814;SDS011;20121;51.910;8.406;2023-05-02T00:50:40;5.00;;;3.20;;
33814;SDS011;20121;51.910;8.406;2023-05-02T00:53:07;3.88;;;3.58;;
33814;SDS011;20121;51.910;8.406;2023-05-02T00:55:34;4.47;;;3.63;;
33814;SDS011;20121;51.910;8.406;2023-05-02T00:58:00;6.38;;;3.38;;
33814;SDS011;20121;51.910;8.406;2023-05-02T01:00:31;4.25;;;3.85;;
33814;SDS011;20121;51.910;8.406;2023-05-02T01:03:09;5.68;;;3.75;;
33814;SDS011;20121;51.910;8.406;2023-05-02T01:05:48;5.75;;;4.80;;
33814;SDS011;20121;51.910;8.406;2023-05-02T01:08:41;5.32;;;3.83;;
33814;SDS011;20121;51.910;8.406;2023-05-02T01:11:16;5.53;;;4.25;;
33814;SDS011;20121;51.910;8.406;2023-05-02T01:14:07;6.63;;;5.05;;
33814;SDS011;20121;51.910;8.406;2023-05-02T01:16:36;8.85;;;4.65;;
33814;SDS011;20121;51.910;8.406;2023-05-02T01:19:04;5.85;;;4.30;;
33814;SDS011;20121;51.910;8.406;2023-05-02T01:21:43;5.82;;;4.50;;
33814;SDS011;20121;51.910;8.406;2023-05-02T01:24:11;7.47;;;4.60;;
33814;SDS011;20121;51.910;8.406;2023-05-02T01:26:51;6.90;;;4.28;;
33814;SDS011;20121;51.910;8.406;2023-05-02T01:29:38;4.45;;;4.03;;
33814;SDS011;20121;51.910;8.406;2023-05-02T01:32:05;5.70;;;5.07;;
33814;SDS011;20121;51.910;8.406;2023-05-02T01:34:33;8.20;;;5.72;;
33814;SDS011;20121;51.910;8.406;2023-05-02T01:37:02;9.13;;;5.85;;
33814;SDS011;20121;51.910;8.406;2023-05-02T01:39:29;8.35;;;4.95;;
33814;SDS011;20121;51.910;8.406;2023-05-02T01:41:56;6.85;;;5.18;;
33814;SDS011;20121;51.910;8.406;2023-05-02T01:44:26;9.38;;;6.63;;
33814;SDS011;20121;51.910;8.406;2023-05-02T01:46:54;13.38;;;6.22;;
33814;SDS011;20121;51.910;8.406;2023-05-02T01:49:22;7.70;;;6.05;;
33814;SDS011;20121;51.910;8.406;2023-05-02T01:51:49;9.23;;;5.20;;
33814;SDS011;20121;51.910;8.406;2023-05-02T01:54:17;8.43;;;5.63;;
33814;SDS011;20121;51.910;8.406;2023-05-02T01:56:45;11.57;;;6.07;;
33814;SDS011;20121;51.910;8.406;2023-05-02T01:59:14;14.52;;;8.18;;
33814;SDS011;20121;51.910;8.406;2023-05-02T02:01:43;14.85;;;8.02;;
33814;SDS011;20121;51.910;8.406;2023-05-02T02:04:10;15.57;;;9.30;;
33814;SDS011;20121;51.910;8.406;2023-05-02T02:06:39;12.10;;;7.50;;
33814;SDS011;20121;51.910;8.406;2023-05-02T02:09:10;14.63;;;7.43;;
33814;SDS011;20121;51.910;8.406;2023-05-02T02:11:36;12.17;;;8.13;;
33814;SDS011;20121;51.910;8.406;2023-05-02T02:14:16;15.82;;;7.95;;
33814;SDS011;20121;51.910;8.406;2023-05-02T02:16:45;11.02;;;6.45;;
33814;SDS011;20121;51.910;8.406;2023-05-02T02:19:12;11.63;;;7.28;;
33814;SDS011;20121;51.910;8.406;2023-05-02T02:21:39;12.98;;;8.82;;
33814;SDS011;20121;51.910;8.406;2023-05-02T02:24:07;26.10;;;11.30;;
33814;SDS011;20121;51.910;8.406;2023-05-02T02:26:34;11.55;;;7.50;;
33814;SDS011;20121;51.910;8.406;2023-05-02T02:29:00;19.13;;;8.25;;
33814;SDS011;20121;51.910;8.406;2023-05-02T02:31:33;14.30;;;10.38;;
33814;SDS011;20121;51.910;8.406;2023-05-02T02:34:00;16.95;;;9.27;;
33814;SDS011;20121;51.910;8.406;2023-05-02T02:39:09;16.40;;;8.05;;
33814;SDS011;20121;51.910;8.406;2023-05-02T02:44:59;15.50;;;8.43;;
33814;SDS011;20121;51.910;8.406;2023-05-02T02:47:42;10.25;;;6.60;;
33814;SDS011;20121;51.910;8.406;2023-05-02T02:50:30;9.43;;;6.03;;
33814;SDS011;20121;51.910;8.406;2023-05-02T02:53:03;11.55;;;6.80;;
33814;SDS011;20121;51.910;8.406;2023-05-02T02:56:15;16.55;;;7.57;;
33814;SDS011;20121;51.910;8.406;2023-05-02T02:58:30;13.85;;;6.80;;
33814;SDS011;20121;51.910;8.406;2023-05-02T03:01:19;17.90;;;10.70;;
33814;SDS011;20121;51.910;8.406;2023-05-02T03:03:47;8.77;;;5.97;;
33814;SDS011;20121;51.910;8.406;2023-05-02T03:06:16;14.90;;;8.52;;
33814;SDS011;20121;51.910;8.406;2023-05-02T03:08:42;11.73;;;6.75;;
33814;SDS011;20121;51.910;8.406;2023-05-02T03:11:08;15.75;;;6.85;;
33814;SDS011;20121;51.910;8.406;2023-05-02T03:13:35;9.68;;;5.97;;
33814;SDS011;20121;51.910;8.406;2023-05-02T03:18:38;18.80;;;8.75;;
33814;SDS011;20121;51.910;8.406;2023-05-02T03:21:04;12.85;;;7.28;;
33814;SDS011;20121;51.910;8.406;2023-05-02T03:23:30;14.20;;;7.60;;
33814;SDS011;20121;51.910;8.406;2023-05-02T03:25:55;11.30;;;6.10;;
33814;SDS011;20121;51.910;8.406;2023-05-02T03:28:21;16.52;;;6.50;;
33814;SDS011;20121;51.910;8.406;2023-05-02T03:30:47;12.03;;;5.63;;
33814;SDS011;20121;51.910;8.406;2023-05-02T03:33:13;12.03;;;7.07;;
33814;SDS011;20121;51.910;8.406;2023-05-02T03:35:38;18.73;;;7.10;;
33814;SDS011;20121;51.910;8.406;2023-05-02T03:38:04;9.87;;;6.70;;
33814;SDS011;20121;51.910;8.406;2023-05-02T03:40:29;12.70;;;5.10;;
33814;SDS011;20121;51.910;8.406;2023-05-02T03:42:55;10.07;;;5.30;;
33814;SDS011;20121;51.910;8.406;2023-05-02T03:45:20;7.30;;;5.23;;
33814;SDS011;20121;51.910;8.406;2023-05-02T03:47:46;13.07;;;6.20;;
33814;SDS011;20121;51.910;8.406;2023-05-02T03:50:12;14.23;;;6.40;;
33814;SDS011;20121;51.910;8.406;2023-05-02T03:52:37;9.53;;;5.53;;
33814;SDS011;20121;51.910;8.406;2023-05-02T03:55:03;10.73;;;5.27;;
33814;SDS011;20121;51.910;8.406;2023-05-02T03:57:30;13.45;;;5.70;;
33814;SDS011;20121;51.910;8.406;2023-05-02T03:59:55;10.57;;;5.17;;
33814;SDS011;20121;51.910;8.406;2023-05-02T04:02:21;12.63;;;5.80;;
33814;SDS011;20121;51.910;8.406;2023-05-02T04:04:47;12.50;;;5.23;;
33814;SDS011;20121;51.910;8.406;2023-05-02T04:07:13;8.10;;;5.65;;
33814;SDS011;20121;51.910;8.406;2023-05-02T04:09:43;9.85;;;5.20;;
33814;SDS011;20121;51.910;8.406;2023-05-02T04:12:09;13.57;;;6.22;;
33814;SDS011;20121;51.910;8.406;2023-05-02T04:14:35;13.00;;;6.13;;
33814;SDS011;20121;51.910;8.406;2023-05-02T04:17:00;14.13;;;5.60;;
33814;SDS011;20121;51.910;8.406;2023-05-02T04:19:26;13.53;;;6.60;;
33814;SDS011;20121;51.910;8.406;2023-05-02T04:21:51;15.33;;;5.90;;
33814;SDS011;20121;51.910;8.406;2023-05-02T04:24:17;16.03;;;5.47;;
33814;SDS011;20121;51.910;8.406;2023-05-02T04:26:43;8.43;;;5.27;;
33814;SDS011;20121;51.910;8.406;2023-05-02T04:29:11;11.88;;;6.82;;
33814;SDS011;20121;51.910;8.406;2023-05-02T04:31:37;11.20;;;6.35;;
33814;SDS011;20121;51.910;8.406;2023-05-02T04:34:03;9.40;;;5.30;;
33814;SDS011;20121;51.910;8.406;2023-05-02T04:36:30;14.02;;;5.63;;
33814;SDS011;20121;51.910;8.406;2023-05-02T04:38:56;9.88;;;5.00;;
33814;SDS011;20121;51.910;8.406;2023-05-02T04:41:21;12.60;;;6.80;;
33814;SDS011;20121;51.910;8.406;2023-05-02T04:43:47;10.73;;;6.03;;
33814;SDS011;20121;51.910;8.406;2023-05-02T04:46:15;7.10;;;4.47;;
33814;SDS011;20121;51.910;8.406;2023-05-02T04:48:41;8.98;;;6.22;;
33814;SDS011;20121;51.910;8.406;2023-05-02T04:51:08;19.03;;;5.73;;
33814;SDS011;20121;51.910;8.406;2023-05-02T04:53:34;10.27;;;6.03;;
33814;SDS011;20121;51.910;8.406;2023-05-02T04:56:00;24.33;;;8.00;;
33814;SDS011;20121;51.910;8.406;2023-05-02T04:58:25;11.10;;;5.60;;
33814;SDS011;20121;51.910;8.406;2023-05-02T05:00:51;13.10;;;5.57;;
33814;SDS011;20121;51.910;8.406;2023-05-02T05:03:18;9.45;;;5.38;;
33814;SDS011;20121;51.910;8.406;2023-05-02T05:05:44;9.47;;;6.20;;
33814;SDS011;20121;51.910;8.406;2023-05-02T05:08:10;12.47;;;6.73;;
33814;SDS011;20121;51.910;8.406;2023-05-02T05:10:35;7.77;;;5.40;;
33814;SDS011;20121;51.910;8.406;2023-05-02T05:13:01;13.83;;;7.20;;
33814;SDS011;20121;51.910;8.406;2023-05-02T05:15:28;10.70;;;7.07;;
33814;SDS011;20121;51.910;8.406;2023-05-02T05:17:53;9.90;;;4.53;;
33814;SDS011;20121;51.910;8.406;2023-05-02T05:20:19;8.97;;;5.83;;
33814;SDS011;20121;51.910;8.406;2023-05-02T05:22:45;9.60;;;5.20;;
33814;SDS011;20121;51.910;8.406;2023-05-02T05:25:10;11.17;;;6.03;;
33814;SDS011;20121;51.910;8.406;2023-05-02T05:27:36;6.97;;;4.13;;
33814;SDS011;20121;51.910;8.406;2023-05-02T05:30:02;10.32;;;5.97;;
33814;SDS011;20121;51.910;8.406;2023-05-02T05:32:29;10.90;;;6.03;;
33814;SDS011;20121;51.910;8.406;2023-05-02T05:34:55;9.60;;;4.47;;
33814;SDS011;20121;51.910;8.406;2023-05-02T05:37:20;6.40;;;3.77;;
33814;SDS011;20121;51.910;8.406;2023-05-02T05:39:46;6.43;;;3.00;;
33814;SDS011;20121;51.910;8.406;2023-05-02T05:42:12;2.53;;;1.90;;
33814;SDS011;20121;51.910;8.406;2023-05-02T05:44:38;4.30;;;2.93;;
33814;SDS011;20121;51.910;8.406;2023-05-02T05:47:04;2.90;;;1.80;;
33814;SDS011;20121;51.910;8.406;2023-05-02T05:49:30;3.90;;;2.73;;
33814;SDS011;20121;51.910;8.406;2023-05-02T05:51:55;1.60;;;1.40;;
33814;SDS011;20121;51.910;8.406;2023-05-02T05:54:21;3.33;;;1.73;;
33814;SDS011;20121;51.910;8.406;2023-05-02T05:56:47;1.57;;;1.47;;
33814;SDS011;20121;51.910;8.406;2023-05-02T05:59:13;2.70;;;1.97;;
33814;SDS011;20121;51.910;8.406;2023-05-02T06:01:38;2.20;;;2.00;;
33814;SDS011;20121;51.910;8.406;2023-05-02T06:04:04;2.80;;;1.30;;
33814;SDS011;20121;51.910;8.406;2023-05-02T06:06:31;1.45;;;1.35;;
33814;SDS011;20121;51.910;8.406;2023-05-02T06:08:57;1.50;;;1.40;;
33814;SDS011;20121;51.910;8.406;2023-05-02T06:11:23;7.00;;;2.13;;
33814;SDS011;20121;51.910;8.406;2023-05-02T06:13:49;7.50;;;2.30;;
33814;SDS011;20121;51.910;8.406;2023-05-02T06:16:15;1.83;;;1.67;;
33814;SDS011;20121;51.910;8.406;2023-05-02T06:18:42;1.63;;;1.52;;
33814;SDS011;20121;51.910;8.406;2023-05-02T06:21:08;2.53;;;1.58;;
33814;SDS011;20121;51.910;8.406;2023-05-02T06:23:33;1.97;;;1.67;;
33814;SDS011;20121;51.910;8.406;2023-05-02T06:25:59;1.40;;;1.30;;
33814;SDS011;20121;51.910;8.406;2023-05-02T06:28:26;1.45;;;1.35;;
33814;SDS011;20121;51.910;8.406;2023-05-02T06:31:02;1.60;;;1.25;;
33814;SDS011;20121;51.910;8.406;2023-05-02T06:33:29;1.55;;;1.45;;
33814;SDS011;20121;51.910;8.406;2023-05-02T06:35:56;1.55;;;1.40;;
33814;SDS011;20121;51.910;8.406;2023-05-02T06:38:22;1.30;;;1.20;;
33814;SDS011;20121;51.910;8.406;2023-05-02T06:40:49;2.00;;;1.23;;
33814;SDS011;20121;51.910;8.406;2023-05-02T06:43:15;1.98;;;1.65;;
33814;SDS011;20121;51.910;8.406;2023-05-02T06:45:42;1.38;;;1.10;;
33814;SDS011;20121;51.910;8.406;2023-05-02T06:48:08;0.82;;;0.80;;
33814;SDS011;20121;51.910;8.406;2023-05-02T06:50:33;2.67;;;1.30;;
33814;SDS011;20121;51.910;8.406;2023-05-02T06:53:00;1.45;;;1.30;;
33814;SDS011;20121;51.910;8.406;2023-05-02T06:55:25;2.60;;;1.20;;
33814;SDS011;20121;51.910;8.406;2023-05-02T06:57:52;1.10;;;1.00;;
33814;SDS011;20121;51.910;8.406;2023-05-02T07:00:18;3.17;;;1.30;;
33814;SDS011;20121;51.910;8.406;2023-05-02T07:02:45;1.90;;;1.27;;
33814;SDS011;20121;51.910;8.406;2023-05-02T07:05:11;1.27;;;1.02;;
33814;SDS011;20121;51.910;8.406;2023-05-02T07:07:39;1.77;;;1.00;;
33814;SDS011;20121;51.910;8.406;2023-05-02T07:10:06;1.33;;;1.17;;
33814;SDS011;20121;51.910;8.406;2023-05-02T07:12:32;2.10;;;1.53;;
33814;SDS011;20121;51.910;8.406;2023-05-02T07:14:57;1.53;;;1.07;;
33814;SDS011;20121;51.910;8.406;2023-05-02T07:17:23;2.90;;;2.63;;
33814;SDS011;20121;51.910;8.406;2023-05-02T07:19:49;6.68;;;1.45;;
33814;SDS011;20121;51.910;8.406;2023-05-02T07:22:15;2.17;;;1.60;;
33814;SDS011;20121;51.910;8.406;2023-05-02T07:24:41;0.70;;;0.70;;
33814;SDS011;20121;51.910;8.406;2023-05-02T07:27:10;3.72;;;1.77;;
33814;SDS011;20121;51.910;8.406;2023-05-02T07:29:36;1.20;;;1.10;;
33814;SDS011;20121;51.910;8.406;2023-05-02T07:32:02;2.95;;;1.35;;
33814;SDS011;20121;51.910;8.406;2023-05-02T07:34:29;1.10;;;1.00;;
33814;SDS011;20121;51.910;8.406;2023-05-02T07:36:55;2.03;;;1.33;;
33814;SDS011;20121;51.910;8.406;2023-05-02T07:39:21;2.50;;;1.43;;
33814;SDS011;20121;51.910;8.406;2023-05-02T07:41:49;1.20;;;1.10;;
33814;SDS011;20121;51.910;8.406;2023-05-02T07:44:18;1.10;;;0.98;;
33814;SDS011;20121;51.910;8.406;2023-05-02T07:46:45;1.10;;;1.00;;
33814;SDS011;20121;51.910;8.406;2023-05-02T07:49:11;1.85;;;1.50;;
33814;SDS011;20121;51.910;8.406;2023-05-02T07:51:37;1.45;;;1.13;;
33814;SDS011;20121;51.910;8.406;2023-05-02T07:54:13;5.85;;;1.73;;
33814;SDS011;20121;51.910;8.406;2023-05-02T07:56:43;1.23;;;1.13;;
33814;SDS011;20121;51.910;8.406;2023-05-02T07:59:09;11.18;;;2.17;;
33814;SDS011;20121;51.910;8.406;2023-05-02T08:01:35;2.55;;;1.00;;
33814;SDS011;20121;51.910;8.406;2023-05-02T08:04:01;7.70;;;1.93;;
33814;SDS011;20121;51.910;8.406;2023-05-02T08:06:26;1.47;;;1.03;;
33814;SDS011;20121;51.910;8.406;2023-05-02T08:08:56;1.92;;;1.38;;
33814;SDS011;20121;51.910;8.406;2023-05-02T08:11:22;5.35;;;1.60;;
33814;SDS011;20121;51.910;8.406;2023-05-02T08:13:53;1.63;;;1.30;;
33814;SDS011;20121;51.910;8.406;2023-05-02T08:16:19;3.67;;;1.70;;
33814;SDS011;20121;51.910;8.406;2023-05-02T08:18:45;10.35;;;2.10;;
33814;SDS011;20121;51.910;8.406;2023-05-02T08:21:11;4.47;;;2.83;;
33814;SDS011;20121;51.910;8.406;2023-05-02T08:23:37;6.13;;;1.67;;
33814;SDS011;20121;51.910;8.406;2023-05-02T08:26:05;2.90;;;1.25;;
33814;SDS011;20121;51.910;8.406;2023-05-02T08:28:30;2.20;;;1.47;;
33814;SDS011;20121;51.910;8.406;2023-05-02T08:30:56;6.07;;;1.93;;
33814;SDS011;20121;51.910;8.406;2023-05-02T08:33:22;3.80;;;1.60;;
33814;SDS011;20121;51.910;8.406;2023-05-02T08:35:47;5.20;;;1.90;;
33814;SDS011;20121;51.910;8.406;2023-05-02T08:38:13;2.10;;;1.83;;
33814;SDS011;20121;51.910;8.406;2023-05-02T08:40:39;12.03;;;1.87;;
33814;SDS011;20121;51.910;8.406;2023-05-02T08:43:05;4.38;;;1.75;;
33814;SDS011;20121;51.910;8.406;2023-05-02T08:45:34;1.30;;;1.20;;
33814;SDS011;20121;51.910;8.406;2023-05-02T08:48:05;2.05;;;1.50;;
33814;SDS011;20121;51.910;8.406;2023-05-02T08:50:34;1.85;;;1.35;;
33814;SDS011;20121;51.910;8.406;2023-05-02T08:53:05;10.02;;;2.05;;
33814;SDS011;20121;51.910;8.406;2023-05-02T08:55:35;5.03;;;2.67;;
33814;SDS011;20121;51.910;8.406;2023-05-02T08:58:04;1.60;;;1.48;;
33814;SDS011;20121;51.910;8.406;2023-05-02T09:00:31;1.27;;;1.17;;
33814;SDS011;20121;51.910;8.406;2023-05-02T09:03:03;4.63;;;1.65;;
33814;SDS011;20121;51.910;8.406;2023-05-02T09:05:36;2.58;;;2.33;;
33814;SDS011;20121;51.910;8.406;2023-05-02T09:08:05;2.55;;;2.35;;
33814;SDS011;20121;51.910;8.406;2023-05-02T09:10:30;2.58;;;1.70;;
33814;SDS011;20121;51.910;8.406;2023-05-02T09:15:56;10.63;;;2.55;;
33814;SDS011;20121;51.910;8.406;2023-05-02T09:18:24;6.45;;;2.33;;
33814;SDS011;20121;51.910;8.406;2023-05-02T09:20:56;1.10;;;1.00;;
33814;SDS011;20121;51.910;8.406;2023-05-02T09:23:32;4.00;;;2.05;;
33814;SDS011;20121;51.910;8.406;2023-05-02T09:26:01;2.05;;;1.95;;
33814;SDS011;20121;51.910;8.406;2023-05-02T09:28:43;1.45;;;1.30;;
33814;SDS011;20121;51.910;8.406;2023-05-02T09:31:19;3.53;;;2.25;;
33814;SDS011;20121;51.910;8.406;2023-05-02T09:33:52;2.60;;;1.80;;
33814;SDS011;20121;51.910;8.406;2023-05-02T09:36:19;1.95;;;1.30;;
33814;SDS011;20121;51.910;8.406;2023-05-02T09:38:49;2.58;;;1.17;;
33814;SDS011;20121;51.910;8.406;2023-05-02T09:41:15;3.38;;;1.40;;
33814;SDS011;20121;51.910;8.406;2023-05-02T09:43:53;1.08;;;0.98;;
33814;SDS011;20121;51.910;8.406;2023-05-02T09:46:20;1.77;;;0.93;;
33814;SDS011;20121;51.910;8.406;2023-05-02T09:48:56;2.60;;;1.33;;
33814;SDS011;20121;51.910;8.406;2023-05-02T09:51:23;3.25;;;1.60;;
33814;SDS011;20121;51.910;8.406;2023-05-02T09:53:49;3.67;;;2.20;;
33814;SDS011;20121;51.910;8.406;2023-05-02T09:56:16;1.10;;;1.00;;
33814;SDS011;20121;51.910;8.406;2023-05-02T09:58:41;2.95;;;1.88;;
33814;SDS011;20121;51.910;8.406;2023-05-02T10:01:10;5.00;;;1.57;;
33814;SDS011;20121;51.910;8.406;2023-05-02T10:03:39;1.85;;;1.75;;
33814;SDS011;20121;51.910;8.406;2023-05-02T10:06:06;1.65;;;1.13;;
33814;SDS011;20121;51.910;8.406;2023-05-02T10:08:33;1.10;;;0.90;;
33814;SDS011;20121;51.910;8.406;2023-05-02T10:10:59;0.93;;;0.93;;
33814;SDS011;20121;51.910;8.406;2023-05-02T10:13:27;1.75;;;1.20;;
33814;SDS011;20121;51.910;8.406;2023-05-02T10:18:26;1.63;;;1.53;;
33814;SDS011;20121;51.910;8.406;2023-05-02T10:20:57;4.20;;;1.50;;
33814;SDS011;20121;51.910;8.406;2023-05-02T10:23:29;5.18;;;2.08;;
33814;SDS011;20121;51.910;8.406;2023-05-02T10:25:58;6.65;;;1.55;;
33814;SDS011;20121;51.910;8.406;2023-05-02T10:28:25;4.00;;;1.58;;
33814;SDS011;20121;51.910;8.406;2023-05-02T10:30:51;3.15;;;1.10;;
33814;SDS011;20121;51.910;8.406;2023-05-02T10:33:19;7.03;;;1.70;;
33814;SDS011;20121;51.910;8.406;2023-05-02T10:35:46;5.10;;;2.17;;
33814;SDS011;20121;51.910;8.406;2023-05-02T10:38:16;2.35;;;1.98;;
33814;SDS011;20121;51.910;8.406;2023-05-02T10:40:51;2.00;;;1.80;;
33814;SDS011;20121;51.910;8.406;2023-05-02T10:43:23;2.78;;;2.08;;
33814;SDS011;20121;51.910;8.406;2023-05-02T10:45:52;2.03;;;1.60;;
33814;SDS011;20121;51.910;8.406;2023-05-02T10:50:53;1.40;;;1.30;;
33814;SDS011;20121;51.910;8.406;2023-05-02T10:56:06;1.35;;;1.25;;
33814;SDS011;20121;51.910;8.406;2023-05-02T10:58:37;1.35;;;1.25;;
33814;SDS011;20121;51.910;8.406;2023-05-02T11:04:11;1.80;;;1.35;;
33814;SDS011;20121;51.910;8.406;2023-05-02T11:07:15;5.10;;;1.45;;
33814;SDS011;20121;51.910;8.406;2023-05-02T11:09:29;1.63;;;1.52;;
33814;SDS011;20121;51.910;8.406;2023-05-02T11:11:57;4.30;;;1.73;;
33814;SDS011;20121;51.910;8.406;2023-05-02T11:19:29;8.55;;;1.80;;
33814;SDS011;20121;51.910;8.406;2023-05-02T11:24:44;3.90;;;3.10;;
33814;SDS011;20121;51.910;8.406;2023-05-02T11:30:04;2.60;;;1.50;;
33814;SDS011;20121;51.910;8.406;2023-05-02T11:35:21;3.28;;;0.95;;
33814;SDS011;20121;51.910;8.406;2023-05-02T11:37:57;2.88;;;1.50;;
33814;SDS011;20121;51.910;8.406;2023-05-02T11:40:25;1.17;;;1.02;;
33814;SDS011;20121;51.910;8.406;2023-05-02T11:42:51;2.45;;;1.33;;
33814;SDS011;20121;51.910;8.406;2023-05-02T11:45:17;3.55;;;3.15;;
33814;SDS011;20121;51.910;8.406;2023-05-02T11:47:45;4.88;;;2.42;;
33814;SDS011;20121;51.910;8.406;2023-05-02T11:50:12;1.75;;;1.50;;
33814;SDS011;20121;51.910;8.406;2023-05-02T11:52:39;1.83;;;1.73;;
33814;SDS011;20121;51.910;8.406;2023-05-02T11:55:12;1.30;;;1.05;;
33814;SDS011;20121;51.910;8.406;2023-05-02T11:57:39;1.98;;;1.55;;
33814;SDS011;20121;51.910;8.406;2023-05-02T12:00:04;2.00;;;1.80;;
33814;SDS011;20121;51.910;8.406;2023-05-02T12:02:35;1.45;;;1.20;;
33814;SDS011;20121;51.910;8.406;2023-05-02T12:05:02;2.03;;;1.40;;
33814;SDS011;20121;51.910;8.406;2023-05-02T12:10:07;8.05;;;2.65;;
33814;SDS011;20121;51.910;8.406;2023-05-02T12:12:33;1.48;;;1.38;;
33814;SDS011;20121;51.910;8.406;2023-05-02T12:15:03;4.10;;;1.67;;
33814;SDS011;20121;51.910;8.406;2023-05-02T12:17:30;10.25;;;3.83;;
33814;SDS011;20121;51.910;8.406;2023-05-02T12:19:57;6.07;;;1.58;;
33814;SDS011;20121;51.910;8.406;2023-05-02T12:22:23;4.93;;;2.08;;
33814;SDS011;20121;51.910;8.406;2023-05-02T12:24:49;2.03;;;1.48;;
33814;SDS011;20121;51.910;8.406;2023-05-02T12:27:17;7.30;;;1.80;;
33814;SDS011;20121;51.910;8.406;2023-05-02T12:29:46;15.10;;;7.20;;
33814;SDS011;20121;51.910;8.406;2023-05-02T12:32:13;1.75;;;1.65;;
33814;SDS011;20121;51.910;8.406;2023-05-02T12:34:43;1.60;;;1.50;;
33814;SDS011;20121;51.910;8.406;2023-05-02T12:37:09;1.40;;;1.30;;
33814;SDS011;20121;51.910;8.406;2023-05-02T12:39:39;4.38;;;1.80;;
33814;SDS011;20121;51.910;8.406;2023-05-02T12:42:10;8.02;;;3.47;;
33814;SDS011;20121;51.910;8.406;2023-05-02T12:44:43;1.50;;;1.40;;
33814;SDS011;20121;51.910;8.406;2023-05-02T12:47:10;10.77;;;1.60;;
33814;SDS011;20121;51.910;8.406;2023-05-02T12:52:21;2.45;;;1.55;;
33814;SDS011;20121;51.910;8.406;2023-05-02T12:55:15;3.58;;;1.00;;
33814;SDS011;20121;51.910;8.406;2023-05-02T12:57:45;1.50;;;1.40;;
33814;SDS011;20121;51.910;8.406;2023-05-02T13:00:11;2.08;;;1.30;;
33814;SDS011;20121;51.910;8.406;2023-05-02T13:02:38;2.78;;;1.73;;
33814;SDS011;20121;51.910;8.406;2023-05-02T13:05:16;2.33;;;1.20;;
33814;SDS011;20121;51.910;8.406;2023-05-02T13:07:44;5.90;;;1.40;;
33814;SDS011;20121;51.910;8.406;2023-05-02T13:10:10;4.13;;;1.50;;
33814;SDS011;20121;51.910;8.406;2023-05-02T13:12:36;0.90;;;0.90;;
33814;SDS011;20121;51.910;8.406;2023-05-02T13:15:05;1.00;;;0.90;;
33814;SDS011;20121;51.910;8.406;2023-05-02T13:17:32;1.60;;;1.50;;
33814;SDS011;20121;51.910;8.406;2023-05-02T13:19:59;2.53;;;1.75;;
33814;SDS011;20121;51.910;8.406;2023-05-02T13:22:25;1.90;;;1.42;;
33814;SDS011;20121;51.910;8.406;2023-05-02T13:24:51;1.10;;;1.00;;
33814;SDS011;20121;51.910;8.406;2023-05-02T13:27:17;6.85;;;2.30;;
33814;SDS011;20121;51.910;8.406;2023-05-02T13:29:43;1.17;;;1.07;;
33814;SDS011;20121;51.910;8.406;2023-05-02T13:32:09;1.40;;;1.30;;
33814;SDS011;20121;51.910;8.406;2023-05-02T13:34:35;1.20;;;1.10;;
33814;SDS011;20121;51.910;8.406;2023-05-02T13:37:01;3.70;;;1.00;;
33814;SDS011;20121;51.910;8.406;2023-05-02T13:39:27;1.70;;;1.60;;
33814;SDS011;20121;51.910;8.406;2023-05-02T13:41:53;2.10;;;1.40;;
33814;SDS011;20121;51.910;8.406;2023-05-02T13:44:18;1.48;;;1.38;;
33814;SDS011;20121;51.910;8.406;2023-05-02T13:46:44;8.97;;;1.27;;
33814;SDS011;20121;51.910;8.406;2023-05-02T13:49:09;2.80;;;1.40;;
33814;SDS011;20121;51.910;8.406;2023-05-02T13:51:35;1.50;;;1.30;;
33814;SDS011;20121;51.910;8.406;2023-05-02T13:54:01;1.30;;;1.20;;
33814;SDS011;20121;51.910;8.406;2023-05-02T13:56:27;3.65;;;1.70;;
33814;SDS011;20121;51.910;8.406;2023-05-02T13:58:52;2.13;;;1.80;;
33814;SDS011;20121;51.910;8.406;2023-05-02T14:01:18;1.40;;;1.30;;
33814;SDS011;20121;51.910;8.406;2023-05-02T14:03:43;4.03;;;2.47;;
33814;SDS011;20121;51.910;8.406;2023-05-02T14:06:09;1.40;;;1.30;;
33814;SDS011;20121;51.910;8.406;2023-05-02T14:08:35;1.40;;;1.10;;
33814;SDS011;20121;51.910;8.406;2023-05-02T14:11:00;2.27;;;1.60;;
33814;SDS011;20121;51.910;8.406;2023-05-02T14:13:26;1.83;;;1.40;;
33814;SDS011;20121;51.910;8.406;2023-05-02T14:15:52;1.43;;;1.33;;
33814;SDS011;20121;51.910;8.406;2023-05-02T14:18:18;1.45;;;1.20;;
33814;SDS011;20121;51.910;8.406;2023-05-02T14:20:44;8.00;;;3.20;;
33814;SDS011;20121;51.910;8.406;2023-05-02T14:23:09;4.13;;;2.40;;
33814;SDS011;20121;51.910;8.406;2023-05-02T14:25:35;4.63;;;1.67;;
33814;SDS011;20121;51.910;8.406;2023-05-02T14:28:01;3.87;;;1.67;;
33814;SDS011;20121;51.910;8.406;2023-05-02T14:30:28;3.13;;;1.90;;
33814;SDS011;20121;51.910;8.406;2023-05-02T14:32:54;4.13;;;1.47;;
33814;SDS011;20121;51.910;8.406;2023-05-02T14:35:20;1.90;;;1.40;;
33814;SDS011;20121;51.910;8.406;2023-05-02T14:37:45;2.80;;;2.10;;
33814;SDS011;20121;51.910;8.406;2023-05-02T14:40:11;3.47;;;2.20;;
33814;SDS011;20121;51.910;8.406;2023-05-02T14:42:38;1.67;;;1.55;;
33814;SDS011;20121;51.910;8.406;2023-05-02T14:45:04;3.65;;;1.65;;
33814;SDS011;20121;51.910;8.406;2023-05-02T14:47:31;2.00;;;1.80;;
33814;SDS011;20121;51.910;8.406;2023-05-02T14:49:57;1.13;;;1.03;;
33814;SDS011;20121;51.910;8.406;2023-05-02T14:52:22;2.40;;;2.20;;
33814;SDS011;20121;51.910;8.406;2023-05-02T14:54:48;3.73;;;1.83;;
33814;SDS011;20121;51.910;8.406;2023-05-02T14:57:13;2.90;;;1.90;;
33814;SDS011;20121;51.910;8.406;2023-05-02T14:59:39;2.63;;;1.73;;
33814;SDS011;20121;51.910;8.406;2023-05-02T15:02:05;6.93;;;2.50;;
33814;SDS011;20121;51.910;8.406;2023-05-02T15:04:31;1.63;;;1.53;;
33814;SDS011;20121;51.910;8.406;2023-05-02T15:06:58;4.70;;;2.20;;
33814;SDS011;20121;51.910;8.406;2023-05-02T15:09:24;5.93;;;1.63;;
33814;SDS011;20121;51.910;8.406;2023-05-02T15:11:50;2.40;;;1.70;;
33814;SDS011;20121;51.910;8.406;2023-05-02T15:14:16;1.42;;;1.33;;
33814;SDS011;20121;51.910;8.406;2023-05-02T15:16:42;1.40;;;1.30;;
33814;SDS011;20121;51.910;8.406;2023-05-02T15:19:08;2.73;;;2.53;;
33814;SDS011;20121;51.910;8.406;2023-05-02T15:21:33;2.50;;;2.30;;
33814;SDS011;20121;51.910;8.406;2023-05-02T15:23:59;8.13;;;4.10;;
33814;SDS011;20121;51.910;8.406;2023-05-02T15:26:25;5.32;;;2.60;;
33814;SDS011;20121;51.910;8.406;2023-05-02T15:28:51;6.70;;;3.23;;
33814;SDS011;20121;51.910;8.406;2023-05-02T15:31:17;4.67;;;1.60;;